createdAt,value
2019-05-05T00:01:59.458Z,100069.70
2019-05-05T00:04:19.191Z,100077.52
2019-05-05T00:06:24.982Z,100079.80
2019-05-05T00:08:31.298Z,100071.69
2019-05-05T00:10:57.038Z,100079.50
2019-05-05T00:13:14.900Z,100077.35
2019-05-05T00:15:45.228Z,100079.50
2019-05-05T00:17:51.787Z,100080.87
2019-05-05T00:19:56.870Z,100078.72
2019-05-05T00:22:01.931Z,100079.17
2019-05-05T00:24:07.097Z,100079.62
2019-05-05T00:26:12.232Z,100080.87
2019-05-05T00:28:17.409Z,100076.50
2019-05-05T00:30:22.554Z,100077.81
2019-05-05T00:32:27.676Z,100084.78
2019-05-05T00:34:34.815Z,100083.02
2019-05-05T00:36:39.580Z,100086.99
2019-05-05T00:38:44.672Z,100084.78
2019-05-05T00:40:50.853Z,100090.84
2019-05-05T00:42:55.927Z,100086.08
2019-05-05T00:45:01.061Z,100087.84
2019-05-05T00:47:25.111Z,100090.51
2019-05-05T00:49:45.611Z,100093.96
2019-05-05T00:51:38.303Z,100090.12
2019-05-05T00:53:44.895Z,100097.15
2019-05-05T00:55:50.146Z,100095.00
2019-05-05T00:57:55.189Z,100091.94
2019-05-05T01:00:00.395Z,100091.48
2019-05-05T01:02:25.034Z,100089.78
2019-05-05T01:04:38.371Z,100091.48
2019-05-05T01:06:45.140Z,100085.97
2019-05-05T01:08:50.189Z,100088.25
2019-05-05T01:10:55.269Z,100089.16
2019-05-05T01:13:00.355Z,100087.86
2019-05-05T01:15:07.217Z,100086.16
2019-05-05T01:17:14.559Z,100090.52
2019-05-05T01:19:19.157Z,100087.08
2019-05-05T01:21:24.506Z,100085.38
2019-05-05T01:23:29.625Z,100084.17
2019-05-05T01:25:34.809Z,100080.72
2019-05-05T01:27:39.892Z,100080.33
2019-05-05T01:29:45.289Z,100075.57
2019-05-05T01:31:51.138Z,100081.69
2019-05-05T01:34:15.139Z,100084.75
2019-05-05T01:36:20.386Z,100075.23
2019-05-05T01:38:34.273Z,100079.27
2019-05-05T01:40:49.370Z,100078.06
2019-05-05T01:42:54.799Z,100076.82
2019-05-05T01:44:59.811Z,100074.67
2019-05-05T01:47:05.405Z,100071.67
2019-05-05T01:49:12.053Z,100078.19
2019-05-05T01:51:17.116Z,100073.04
2019-05-05T01:53:22.128Z,100071.41
2019-05-05T01:55:27.196Z,100076.16
2019-05-05T01:57:34.346Z,100067.50
2019-05-05T01:59:39.117Z,100064.08
2019-05-05T02:01:44.613Z,100064.59
2019-05-05T02:03:49.737Z,100070.26
2019-05-05T02:05:55.887Z,100072.92
2019-05-05T02:08:00.924Z,100074.23
2019-05-05T02:10:06.479Z,100068.63
2019-05-05T02:12:11.927Z,100078.66
2019-05-05T02:14:16.986Z,100077.86
2019-05-05T02:16:22.009Z,100074.44
2019-05-05T02:18:28.121Z,100076.20
2019-05-05T02:20:59.602Z,100070.14
2019-05-05T02:23:04.758Z,100068.91
2019-05-05T02:25:09.756Z,100068.57
2019-05-05T02:27:15.635Z,100069.48
2019-05-05T02:29:27.652Z,100064.82
2019-05-05T02:31:57.658Z,100073.84
2019-05-05T02:34:05.233Z,100077.90
2019-05-05T02:36:10.517Z,100074.05
2019-05-05T02:38:15.943Z,100070.72
2019-05-05T02:40:21.041Z,100076.72
2019-05-05T02:42:26.824Z,100076.72
2019-05-05T02:44:34.606Z,100075.08
2019-05-05T02:46:44.647Z,100075.53
2019-05-05T02:48:50.496Z,100072.08
2019-05-05T02:51:01.806Z,100073.48
2019-05-05T02:53:04.002Z,100077.84
2019-05-05T02:55:10.264Z,100076.93
2019-05-05T02:57:15.316Z,100074.84
2019-05-05T02:59:41.168Z,100073.99
2019-05-05T03:01:50.682Z,100073.20
2019-05-05T03:03:55.983Z,100071.96
2019-05-05T03:06:01.050Z,100073.66
2019-05-05T03:08:06.098Z,100079.32
2019-05-05T03:10:11.121Z,100073.36
2019-05-05T03:12:16.167Z,100073.36
2019-05-05T03:14:23.526Z,100072.12
2019-05-05T03:16:34.025Z,100071.66
2019-05-05T03:18:38.743Z,100068.23
2019-05-05T03:20:43.790Z,100065.23
2019-05-05T03:22:49.176Z,100069.59
2019-05-05T03:24:54.290Z,100072.20
2019-05-05T03:26:59.329Z,100071.35
2019-05-05T03:29:06.279Z,100074.86
2019-05-05T03:31:11.345Z,100074.47
2019-05-05T03:33:16.449Z,100076.67
2019-05-05T03:35:24.112Z,100076.31
2019-05-05T03:37:29.288Z,100071.11
2019-05-05T03:39:34.711Z,100077.67
2019-05-05T03:41:50.773Z,100081.19
2019-05-05T03:44:05.717Z,100085.94
2019-05-05T03:46:10.808Z,100086.45
2019-05-05T03:48:15.904Z,100089.50
2019-05-05T03:50:21.063Z,100087.80
2019-05-05T03:52:26.114Z,100082.66
2019-05-05T03:54:31.473Z,100083.96
2019-05-05T03:56:36.551Z,100074.04
2019-05-05T03:58:43.589Z,100083.59
2019-05-05T04:02:03.971Z,100078.45
2019-05-05T04:04:24.446Z,100081.91
2019-05-05T04:06:38.762Z,100080.33
2019-05-05T04:08:44.884Z,100072.27
2019-05-05T04:10:49.905Z,100069.73
2019-05-05T04:12:54.961Z,100071.99
2019-05-05T04:15:00.253Z,100077.14
2019-05-05T04:17:27.117Z,100071.48
2019-05-05T04:19:34.246Z,100071.53
2019-05-05T04:21:39.393Z,100073.23
2019-05-05T04:23:44.437Z,100071.08
2019-05-05T04:25:49.491Z,100071.94
2019-05-05T04:27:54.574Z,100071.14
2019-05-05T04:29:59.634Z,100067.69
2019-05-05T04:32:04.824Z,100070.75
2019-05-05T04:34:09.909Z,100067.69
2019-05-05T04:36:14.943Z,100071.20
2019-05-05T04:38:19.985Z,100076.04
2019-05-05T04:40:25.041Z,100070.44
2019-05-05T04:42:30.062Z,100069.14
2019-05-05T04:44:35.133Z,100073.50
2019-05-05T04:46:41.902Z,100070.11
2019-05-05T04:48:54.434Z,100073.55
2019-05-05T04:51:05.857Z,100072.77
2019-05-05T04:53:15.608Z,100074.13
2019-05-05T04:55:20.643Z,100076.33
2019-05-05T04:57:27.256Z,100076.33
2019-05-05T04:59:34.003Z,100076.78
2019-05-05T05:01:40.386Z,100078.08
2019-05-05T05:03:56.593Z,100087.73
2019-05-05T05:06:04.794Z,100078.22
2019-05-05T05:08:09.863Z,100081.73
2019-05-05T05:10:14.897Z,100083.48
2019-05-05T05:12:20.373Z,100082.23
2019-05-05T05:14:25.421Z,100086.09
2019-05-05T05:16:30.562Z,100084.89
2019-05-05T05:18:35.701Z,100088.34
2019-05-05T05:20:40.756Z,100096.23
2019-05-05T05:22:45.786Z,100097.98
2019-05-05T05:24:51.175Z,100095.39
2019-05-05T05:26:56.297Z,100088.94
2019-05-05T05:29:01.359Z,100092.84
2019-05-05T05:31:06.444Z,100092.00
2019-05-05T05:33:11.485Z,100099.41
2019-05-05T05:35:16.515Z,100099.01
2019-05-05T05:37:21.571Z,100096.86
2019-05-05T05:39:43.937Z,100099.06
2019-05-05T05:41:48.643Z,100095.16
2019-05-05T05:44:14.051Z,100095.22
2019-05-05T05:46:56.706Z,100095.67
2019-05-05T05:49:10.354Z,100096.16
2019-05-05T05:51:19.358Z,100103.22
2019-05-05T05:53:24.644Z,100105.42
2019-05-05T05:55:30.732Z,100100.27
2019-05-05T05:57:36.105Z,100104.17
2019-05-05T05:59:44.358Z,100105.47
2019-05-05T06:01:49.091Z,100102.03
2019-05-05T06:03:54.121Z,100097.28
2019-05-05T06:05:59.176Z,100102.93
2019-05-05T06:08:04.764Z,100101.17
2019-05-05T06:10:21.449Z,100099.03
2019-05-05T06:12:17.811Z,100098.21
2019-05-05T06:14:24.705Z,100097.81
2019-05-05T06:16:29.844Z,100099.52
2019-05-05T06:18:34.911Z,100106.91
2019-05-05T06:20:41.050Z,100104.31
2019-05-05T06:22:46.113Z,100109.97
2019-05-05T06:24:51.165Z,100109.12
2019-05-05T06:26:56.221Z,100116.47
2019-05-05T06:29:01.288Z,100117.38
2019-05-05T06:31:06.319Z,100111.72
2019-05-05T06:33:13.559Z,100117.38
2019-05-05T06:35:18.144Z,100120.42
2019-05-05T06:37:23.853Z,100118.67
2019-05-05T06:39:29.077Z,100127.77
2019-05-05T06:41:43.492Z,100121.27
2019-05-05T06:44:16.739Z,100122.57
2019-05-05T06:46:25.193Z,100120.03
2019-05-05T06:48:30.229Z,100120.53
2019-05-05T06:50:35.275Z,100124.03
2019-05-05T06:52:44.180Z,100124.48
2019-05-05T06:54:47.121Z,100127.48
2019-05-05T06:56:53.845Z,100128.78
2019-05-05T06:58:59.084Z,100130.94
2019-05-05T07:01:04.118Z,100128.73
2019-05-05T07:03:09.166Z,100127.03
2019-05-05T07:05:14.423Z,100123.98
2019-05-05T07:07:19.589Z,100125.67
2019-05-05T07:09:24.669Z,100126.52
2019-05-05T07:11:29.734Z,100125.23
2019-05-05T07:13:36.337Z,100126.98
2019-05-05T07:15:43.781Z,100127.43
2019-05-05T07:17:49.150Z,100118.78
2019-05-05T07:19:54.492Z,100123.08
2019-05-05T07:21:59.507Z,100126.13
2019-05-05T07:24:04.554Z,100121.33
2019-05-05T07:26:10.647Z,100122.57
2019-05-05T07:28:15.694Z,100123.08
2019-05-05T07:30:20.785Z,100126.08
2019-05-05T07:32:25.833Z,100124.78
2019-05-05T07:34:50.653Z,100125.17
2019-05-05T07:36:55.809Z,100123.88
2019-05-05T07:39:05.470Z,100126.02
2019-05-05T07:41:10.577Z,100125.57
2019-05-05T07:43:15.607Z,100126.92
2019-05-05T07:45:23.561Z,100127.32
2019-05-05T07:47:27.452Z,100126.02
2019-05-05T07:49:33.621Z,100129.02
2019-05-05T07:51:38.802Z,100127.32
2019-05-05T07:53:44.424Z,100128.11
2019-05-05T07:55:49.663Z,100121.13
2019-05-05T07:57:54.704Z,100121.61
2019-05-05T07:59:59.717Z,100120.68
2019-05-05T08:02:04.783Z,100119.38
2019-05-05T08:04:09.822Z,100116.33
2019-05-05T08:06:14.872Z,100119.33
2019-05-05T08:08:19.937Z,100128.83
2019-05-05T08:10:25.000Z,100127.08
2019-05-05T08:12:30.085Z,100121.47
2019-05-05T08:14:35.550Z,100123.62
2019-05-05T08:17:04.138Z,100121.87
2019-05-05T08:19:40.421Z,100123.97
2019-05-05T08:21:45.473Z,100123.97
2019-05-05T08:24:21.853Z,100123.17
2019-05-05T08:26:49.052Z,100129.27
2019-05-05T08:28:58.984Z,100125.77
2019-05-05T08:31:15.048Z,100128.77
2019-05-05T08:33:20.092Z,100126.17
2019-05-05T08:35:25.160Z,100120.91
2019-05-05T08:37:30.241Z,100121.31
2019-05-05T08:39:35.303Z,100122.61
2019-05-05T08:41:40.369Z,100124.28
2019-05-05T08:43:45.422Z,100126.38
2019-05-05T08:45:50.475Z,100123.72
2019-05-05T08:47:55.512Z,100117.61
2019-05-05T08:50:00.567Z,100118.91
2019-05-05T08:52:05.599Z,100124.51
2019-05-05T08:54:10.658Z,100120.16
2019-05-05T08:56:15.700Z,100125.75
2019-05-05T08:58:20.849Z,100120.95
2019-05-05T09:00:26.119Z,100123.06
2019-05-05T09:02:33.160Z,100123.46
2019-05-05T09:04:38.304Z,100121.26
2019-05-05T09:06:43.896Z,100121.20
2019-05-05T09:08:49.022Z,100120.70
2019-05-05T09:10:55.269Z,100113.73
2019-05-05T09:13:01.056Z,100122.84
2019-05-05T09:15:06.524Z,100119.25
2019-05-05T09:17:13.700Z,100120.19
2019-05-05T09:19:20.275Z,100117.09
2019-05-05T09:21:25.306Z,100117.05
2019-05-05T09:23:32.075Z,100118.74
2019-05-05T09:25:59.517Z,100119.14
2019-05-05T09:28:15.513Z,100124.80
2019-05-05T09:30:41.814Z,100128.59
2019-05-05T09:32:46.943Z,100126.89
2019-05-05T09:34:53.932Z,100127.39
2019-05-05T09:36:59.307Z,100126.09
2019-05-05T09:39:05.339Z,100123.89
2019-05-05T09:41:10.429Z,100123.83
2019-05-05T09:43:15.800Z,100127.59
2019-05-05T09:45:20.821Z,100124.48
2019-05-05T09:47:25.852Z,100123.58
2019-05-05T09:49:30.936Z,100122.28
2019-05-05T09:51:35.987Z,100115.20
2019-05-05T09:53:41.449Z,100116.50
2019-05-05T09:55:46.534Z,100116.41
2019-05-05T09:57:53.918Z,100120.66
2019-05-05T10:00:08.826Z,100123.66
2019-05-05T10:02:13.978Z,100127.90
2019-05-05T10:04:19.030Z,100122.19
2019-05-05T10:06:24.465Z,100122.09
2019-05-05T10:08:30.134Z,100118.58
2019-05-05T10:10:35.173Z,100118.08
2019-05-05T10:12:40.221Z,100125.37
2019-05-05T10:14:46.426Z,100125.77
2019-05-05T10:16:51.486Z,100120.41
2019-05-05T10:18:56.527Z,100115.15
2019-05-05T10:21:01.634Z,100121.20
2019-05-05T10:23:07.683Z,100122.03
2019-05-05T10:25:34.987Z,100120.67
2019-05-05T10:27:44.963Z,100119.22
2019-05-05T10:29:46.969Z,100121.42
2019-05-05T10:31:53.926Z,100119.61
2019-05-05T10:34:04.390Z,100123.52
2019-05-05T10:36:09.014Z,100124.70
2019-05-05T10:38:14.484Z,100124.64
2019-05-05T10:40:23.927Z,100130.61
2019-05-05T10:42:47.933Z,100133.55
2019-05-05T10:44:53.803Z,100133.09
2019-05-05T10:46:58.880Z,100136.42
2019-05-05T10:49:03.925Z,100142.39
2019-05-05T10:51:09.110Z,100140.12
2019-05-05T10:53:14.428Z,100138.30
2019-05-05T10:55:19.489Z,100139.06
2019-05-05T10:57:24.562Z,100142.06
2019-05-05T10:59:29.644Z,100140.19
2019-05-05T11:01:34.785Z,100137.98
2019-05-05T11:03:39.807Z,100134.86
2019-05-05T11:05:45.282Z,100143.03
2019-05-05T11:07:50.445Z,100140.82
2019-05-05T11:09:55.493Z,100141.61
2019-05-05T11:12:00.523Z,100141.94
2019-05-05T11:14:05.706Z,100143.64
2019-05-05T11:16:10.754Z,100140.94
2019-05-05T11:18:15.876Z,100143.48
2019-05-05T11:20:20.956Z,100140.82
2019-05-05T11:22:26.029Z,100139.06
2019-05-05T11:24:31.434Z,100136.40
2019-05-05T11:26:36.482Z,100132.42
2019-05-05T11:28:41.540Z,100133.67
2019-05-05T11:30:46.803Z,100133.13
2019-05-05T11:33:09.627Z,100127.39
2019-05-05T11:35:14.735Z,100124.27
2019-05-05T11:37:21.296Z,100129.03
2019-05-05T11:39:26.336Z,100131.63
2019-05-05T11:41:31.358Z,100128.48
2019-05-05T11:43:36.433Z,100123.99
2019-05-05T11:45:43.692Z,100127.77
2019-05-05T11:47:48.201Z,100125.11
2019-05-05T11:49:56.187Z,100125.47
2019-05-05T11:51:59.976Z,100124.89
2019-05-05T11:54:05.023Z,100124.89
2019-05-05T11:56:10.081Z,100129.58
2019-05-05T11:58:15.097Z,100122.52
2019-05-05T12:00:20.135Z,100119.00
2019-05-05T12:02:25.274Z,100120.17
2019-05-05T12:04:30.433Z,100119.72
2019-05-05T12:06:35.456Z,100123.05
2019-05-05T12:08:45.084Z,100115.62
2019-05-05T12:11:06.952Z,100119.46
2019-05-05T12:13:14.728Z,100122.46
2019-05-05T12:15:20.315Z,100122.33
2019-05-05T12:17:35.530Z,100114.45
2019-05-05T12:19:40.592Z,100111.84
2019-05-05T12:21:45.704Z,100113.05
2019-05-05T12:23:50.766Z,100116.05
2019-05-05T12:26:11.252Z,100114.28
2019-05-05T12:28:34.626Z,100113.77
2019-05-05T12:30:39.865Z,100111.09
2019-05-05T12:32:45.011Z,100113.54
2019-05-05T12:34:50.170Z,100114.00
2019-05-05T12:36:55.188Z,100113.87
2019-05-05T12:39:03.637Z,100112.04
2019-05-05T12:41:09.666Z,100111.98
2019-05-05T12:43:14.712Z,100108.81
2019-05-05T12:45:24.037Z,100108.29
2019-05-05T12:47:37.052Z,100103.86
2019-05-05T12:49:43.897Z,100104.25
2019-05-05T12:51:48.987Z,100101.86
2019-05-05T12:53:54.095Z,100102.25
2019-05-05T12:55:59.082Z,100102.64
2019-05-05T12:58:04.126Z,100106.03
2019-05-05T13:00:09.345Z,100097.30
2019-05-05T13:02:14.433Z,100103.30
2019-05-05T13:04:19.479Z,100093.61
2019-05-05T13:06:24.537Z,100094.39
2019-05-05T13:08:29.581Z,100097.78
2019-05-05T13:10:34.614Z,100099.86
2019-05-05T13:12:39.924Z,100099.37
2019-05-05T13:14:45.146Z,100095.00
2019-05-05T13:16:53.177Z,100094.86
2019-05-05T13:18:56.965Z,100096.09
2019-05-05T13:21:39.813Z,100098.19
2019-05-05T13:24:01.380Z,100097.73
2019-05-05T13:26:25.544Z,100091.56
2019-05-05T13:28:30.618Z,100095.02
2019-05-05T13:30:35.738Z,100086.27
2019-05-05T13:32:40.802Z,100090.97
2019-05-05T13:34:45.870Z,100087.83
2019-05-05T13:36:50.900Z,100093.83
2019-05-05T13:38:56.028Z,100085.44
2019-05-05T13:41:03.614Z,100083.22
2019-05-05T13:43:08.385Z,100088.37
2019-05-05T13:45:43.486Z,100078.25
2019-05-05T13:47:48.143Z,100083.40
2019-05-05T13:49:56.133Z,100077.33
2019-05-05T13:52:04.649Z,100079.38
2019-05-05T13:54:10.892Z,100077.16
2019-05-05T13:56:16.018Z,100070.56
2019-05-05T13:58:21.446Z,100071.80
2019-05-05T14:00:26.865Z,100070.04
2019-05-05T14:02:33.455Z,100073.89
2019-05-05T14:04:38.561Z,100071.66
2019-05-05T14:06:45.118Z,100065.52
2019-05-05T14:08:50.602Z,100067.53
2019-05-05T14:10:55.724Z,100064.92
2019-05-05T14:13:00.836Z,100064.47
2019-05-05T14:15:06.250Z,100064.78
2019-05-05T14:17:11.393Z,100062.17
2019-05-05T14:19:16.529Z,100056.84
2019-05-05T14:21:21.560Z,100056.39
2019-05-05T14:23:28.593Z,100052.86
2019-05-05T14:25:33.620Z,100045.03
2019-05-05T14:27:38.669Z,100044.95
2019-05-05T14:29:55.692Z,100049.19
2019-05-05T14:32:00.722Z,100047.89
2019-05-05T14:34:18.978Z,100047.42
2019-05-05T14:36:44.163Z,100046.51
2019-05-05T14:38:53.923Z,100048.17
2019-05-05T14:40:59.040Z,100047.32
2019-05-05T14:43:04.511Z,100041.18
2019-05-05T14:45:10.504Z,100041.95
2019-05-05T14:47:15.690Z,100036.66
2019-05-05T14:49:20.729Z,100032.28
2019-05-05T14:51:25.773Z,100028.30
2019-05-05T14:53:34.811Z,100029.14
2019-05-05T14:55:40.052Z,100027.73
2019-05-05T14:57:45.069Z,100019.83
2019-05-05T14:59:50.533Z,100020.21
2019-05-05T15:01:55.564Z,100020.14
2019-05-05T15:04:00.617Z,100011.45
2019-05-05T15:06:24.595Z,100014.38
2019-05-05T15:08:48.561Z,100007.85
2019-05-05T15:11:14.227Z,100003.86
2019-05-05T15:13:19.540Z,99998.99
2019-05-05T15:15:24.560Z,99999.45
2019-05-05T15:17:29.599Z,100001.25
2019-05-05T15:19:34.618Z,99998.14
2019-05-05T15:21:39.660Z,100005.83
2019-05-05T15:23:44.684Z,99997.61
2019-05-05T15:25:49.698Z,99997.53
2019-05-05T15:27:54.731Z,99995.77
2019-05-05T15:29:59.969Z,99988.39
2019-05-05T15:32:05.021Z,99996.08
2019-05-05T15:34:10.111Z,99989.55
2019-05-05T15:36:16.223Z,99994.31
2019-05-05T15:38:21.263Z,99988.17
2019-05-05T15:40:27.532Z,99988.98
2019-05-05T15:42:33.518Z,99994.70
2019-05-05T15:44:38.625Z,99986.48
2019-05-05T15:46:44.190Z,99989.48
2019-05-05T15:48:49.446Z,99986.37
2019-05-05T15:50:55.563Z,99984.99
2019-05-05T15:53:00.671Z,99981.00
2019-05-05T15:55:06.581Z,99983.69
2019-05-05T15:57:14.319Z,99985.77
2019-05-05T15:59:18.479Z,99989.61
2019-05-05T16:01:23.794Z,99984.38
2019-05-05T16:03:29.947Z,99985.23
2019-05-05T16:05:35.083Z,99979.16
2019-05-05T16:07:40.115Z,99977.85
2019-05-05T16:09:46.822Z,99975.55
2019-05-05T16:11:51.976Z,99976.86
2019-05-05T16:13:57.368Z,99967.33
2019-05-05T16:16:14.661Z,99975.05
2019-05-05T16:18:36.329Z,99961.99
2019-05-05T16:20:46.406Z,99957.27
2019-05-05T16:22:58.778Z,99959.38
2019-05-05T16:25:14.286Z,99957.27
2019-05-05T16:27:22.228Z,99957.27
2019-05-05T16:29:27.183Z,99964.61
2019-05-05T16:31:34.106Z,99968.17
2019-05-05T16:33:39.329Z,99968.17
2019-05-05T16:35:44.360Z,99966.30
2019-05-05T16:37:49.387Z,99959.77
2019-05-05T16:39:54.730Z,99958.84
2019-05-05T16:41:59.773Z,99957.92
2019-05-05T16:44:05.233Z,99966.61
2019-05-05T16:46:11.239Z,99964.84
2019-05-05T16:48:16.291Z,99964.84
2019-05-05T16:50:21.344Z,99957.39
2019-05-05T16:52:37.730Z,99957.00
2019-05-05T16:55:04.560Z,99965.69
2019-05-05T16:57:09.888Z,99960.92
2019-05-05T16:59:16.595Z,99957.00
2019-05-05T17:01:21.743Z,99957.46
2019-05-05T17:03:26.783Z,99961.77
2019-05-05T17:05:31.803Z,99958.31
2019-05-05T17:07:36.839Z,99960.92
2019-05-05T17:09:43.717Z,99958.31
2019-05-05T17:12:07.544Z,99953.93
2019-05-05T17:14:23.459Z,99952.16
2019-05-05T17:16:46.461Z,99949.09
2019-05-05T17:19:00.387Z,99946.09
2019-05-05T17:21:18.600Z,99938.41
2019-05-05T17:23:23.828Z,99939.72
2019-05-05T17:25:28.866Z,99938.87
2019-05-05T17:27:47.114Z,99935.88
2019-05-05T17:29:40.747Z,99936.64
2019-05-05T17:31:46.084Z,99937.48
2019-05-05T17:33:51.128Z,99935.72
2019-05-05T17:35:57.225Z,99936.56
2019-05-05T17:38:10.659Z,99926.58
2019-05-05T17:40:24.250Z,99930.95
2019-05-05T17:42:53.609Z,99926.58
2019-05-05T17:45:14.630Z,99918.81
2019-05-05T17:47:36.669Z,99923.20
2019-05-05T17:50:04.948Z,99926.38
2019-05-05T17:52:18.887Z,99927.30
2019-05-05T17:54:33.738Z,99932.60
2019-05-05T17:56:38.657Z,99925.69
2019-05-05T17:58:44.463Z,99917.39
2019-05-05T18:00:54.791Z,99917.85
2019-05-05T18:03:00.762Z,99910.86
2019-05-05T18:05:06.082Z,99913.40
2019-05-05T18:07:31.257Z,99904.72
2019-05-05T18:09:55.617Z,99901.19
2019-05-05T18:12:13.894Z,99901.64
2019-05-05T18:14:24.020Z,99906.48
2019-05-05T18:16:33.757Z,99899.27
2019-05-05T18:18:38.716Z,99899.64
2019-05-05T18:20:44.895Z,99897.80
2019-05-05T18:22:50.043Z,99888.35
2019-05-05T18:24:55.322Z,99895.65
2019-05-05T18:27:00.343Z,99893.04
2019-05-05T18:29:05.388Z,99899.57
2019-05-05T18:31:10.414Z,99898.64
2019-05-05T18:33:15.869Z,99896.88
2019-05-05T18:35:29.045Z,99897.80
2019-05-05T18:37:34.585Z,99896.88
2019-05-05T18:39:39.620Z,99895.19
2019-05-05T18:41:50.077Z,99898.72
2019-05-05T18:44:26.335Z,99896.95
2019-05-05T18:46:31.402Z,99897.34
2019-05-05T18:48:37.012Z,99897.42
2019-05-05T18:50:42.075Z,99892.27
2019-05-05T18:52:47.343Z,99897.50
2019-05-05T18:54:54.355Z,99897.03
2019-05-05T18:56:59.214Z,99901.72
2019-05-05T18:59:06.563Z,99904.33
2019-05-05T19:01:28.837Z,99895.19
2019-05-05T19:03:54.480Z,99901.34
2019-05-05T19:06:21.359Z,99900.19
2019-05-05T19:08:32.725Z,99893.77
2019-05-05T19:10:37.772Z,99889.84
2019-05-05T19:12:44.264Z,99890.69
2019-05-05T19:14:49.417Z,99891.05
2019-05-05T19:16:55.767Z,99896.27
2019-05-05T19:19:00.892Z,99895.07
2019-05-05T19:21:21.435Z,99886.77
2019-05-05T19:23:26.785Z,99888.43
2019-05-05T19:25:31.915Z,99885.93
2019-05-05T19:27:36.967Z,99889.00
2019-05-05T19:29:45.963Z,99885.93
2019-05-05T19:31:49.068Z,99888.92
2019-05-05T19:33:55.869Z,99889.46
2019-05-05T19:36:01.225Z,99885.55
2019-05-05T19:38:06.271Z,99881.70
2019-05-05T19:40:14.019Z,99887.39
2019-05-05T19:42:18.542Z,99890.84
2019-05-05T19:44:25.886Z,99893.92
2019-05-05T19:46:39.832Z,99892.23
2019-05-05T19:48:44.900Z,99889.70
2019-05-05T19:51:05.256Z,99894.45
2019-05-05T19:53:24.631Z,99892.30
2019-05-05T19:55:30.040Z,99891.92
2019-05-05T19:57:36.076Z,99889.42
2019-05-05T19:59:41.296Z,99896.80
2019-05-05T20:01:46.308Z,99892.48
2019-05-05T20:03:51.498Z,99886.42
2019-05-05T20:05:56.942Z,99887.27
2019-05-05T20:08:03.985Z,99888.58
2019-05-05T20:10:08.691Z,99889.03
2019-05-05T20:12:14.736Z,99890.80
2019-05-05T20:14:21.386Z,99890.42
2019-05-05T20:16:37.731Z,99895.18
2019-05-05T20:18:43.716Z,99886.96
2019-05-05T20:21:00.923Z,99887.42
2019-05-05T20:22:55.643Z,99888.80
2019-05-05T20:25:00.698Z,99887.95
2019-05-05T20:27:08.339Z,99886.73
2019-05-05T20:29:16.551Z,99882.81
2019-05-05T20:31:20.195Z,99883.30
2019-05-05T20:33:40.231Z,99878.09
2019-05-05T20:35:48.775Z,99879.00
2019-05-05T20:38:02.037Z,99874.70
2019-05-05T20:40:08.332Z,99870.94
2019-05-05T20:42:14.908Z,99876.55
2019-05-05T20:44:20.210Z,99875.70
2019-05-05T20:46:25.270Z,99876.16
2019-05-05T20:48:31.885Z,99878.39
2019-05-05T20:50:38.029Z,99878.39
2019-05-05T20:52:44.249Z,99876.63
2019-05-05T20:54:49.319Z,99871.94
2019-05-05T20:56:54.424Z,99872.89
2019-05-05T20:58:59.556Z,99876.31
2019-05-05T21:01:04.878Z,99870.74
2019-05-05T21:03:10.052Z,99871.59
2019-05-05T21:05:15.177Z,99869.44
2019-05-05T21:07:23.423Z,99870.36
2019-05-05T21:09:28.183Z,99873.89
2019-05-05T21:11:33.375Z,99869.13
2019-05-05T21:13:38.392Z,99870.89
2019-05-05T21:15:45.093Z,99867.05
2019-05-05T21:17:50.219Z,99867.05
2019-05-05T21:19:55.343Z,99867.97
2019-05-05T21:22:04.226Z,99867.13
2019-05-05T21:24:09.643Z,99867.59
2019-05-05T21:26:25.175Z,99864.63
2019-05-05T21:28:30.227Z,99870.31
2019-05-05T21:30:35.379Z,99868.16
2019-05-05T21:32:43.393Z,99867.39
2019-05-05T21:34:49.639Z,99866.93
2019-05-05T21:36:54.772Z,99860.02
2019-05-05T21:38:59.929Z,99857.02
2019-05-05T21:41:06.009Z,99857.10
2019-05-05T21:43:11.095Z,99852.80
2019-05-05T21:45:16.123Z,99859.71
2019-05-05T21:47:21.144Z,99854.56
2019-05-05T21:49:27.235Z,99857.56
2019-05-05T21:51:50.208Z,99855.02
2019-05-05T21:54:13.968Z,99858.48
2019-05-05T21:56:44.251Z,99860.32
2019-05-05T21:58:49.304Z,99859.62
2019-05-05T22:01:19.344Z,99864.19
2019-05-05T22:03:31.325Z,99862.88
2019-05-05T22:05:36.364Z,99871.06
2019-05-05T22:07:41.722Z,99869.41
2019-05-05T22:09:46.770Z,99864.19
2019-05-05T22:11:51.971Z,99861.08
2019-05-05T22:13:57.010Z,99862.31
2019-05-05T22:16:03.895Z,99865.38
2019-05-05T22:18:08.812Z,99861.47
2019-05-05T22:20:20.747Z,99867.98
2019-05-05T22:22:27.648Z,99872.83
2019-05-05T22:24:33.382Z,99859.42
2019-05-05T22:26:39.528Z,99858.47
2019-05-05T22:28:44.682Z,99850.75
2019-05-05T22:30:49.925Z,99852.05
2019-05-05T22:32:55.019Z,99852.05
2019-05-05T22:35:00.064Z,99846.84
2019-05-05T22:37:08.893Z,99847.75
2019-05-05T22:39:12.051Z,99847.75
2019-05-05T22:41:17.161Z,99849.13
2019-05-05T22:43:23.871Z,99850.44
2019-05-05T22:45:29.111Z,99849.59
2019-05-05T22:47:34.605Z,99844.38
2019-05-05T22:49:39.760Z,99842.69
2019-05-05T22:51:44.981Z,99846.60
2019-05-05T22:53:50.091Z,99851.82
2019-05-05T22:55:55.218Z,99847.91
2019-05-05T22:58:00.277Z,99846.22
2019-05-05T23:00:06.091Z,99841.92
2019-05-05T23:02:14.587Z,99841.53
2019-05-05T23:04:45.375Z,99843.79
2019-05-05T23:06:56.932Z,99848.16
2019-05-05T23:09:04.007Z,99838.80
2019-05-05T23:11:09.639Z,99837.17
2019-05-05T23:13:14.679Z,99835.52
2019-05-05T23:15:19.722Z,99837.67
2019-05-05T23:17:31.382Z,99830.84
2019-05-05T23:19:44.370Z,99834.75
2019-05-05T23:21:59.468Z,99830.45
2019-05-05T23:24:23.796Z,99835.28
2019-05-05T23:26:31.016Z,99841.42
2019-05-05T23:28:36.155Z,99837.69
2019-05-05T23:30:44.120Z,99838.22
2019-05-05T23:32:48.306Z,99835.61
2019-05-05T23:34:53.312Z,99831.77
2019-05-05T23:36:59.432Z,99834.91
2019-05-05T23:39:06.413Z,99830.09
2019-05-05T23:41:14.589Z,99826.63
2019-05-05T23:43:20.865Z,99824.94
2019-05-05T23:45:27.762Z,99824.20
2019-05-05T23:47:34.519Z,99821.10
2019-05-05T23:49:39.640Z,99815.61
2019-05-05T23:51:44.680Z,99816.06
2019-05-05T23:53:49.743Z,99809.23
2019-05-05T23:55:54.993Z,99814.91
2019-05-05T23:58:00.029Z,99811.06
